createdAt,value
2019-01-04T00:00:58.229Z,102286.91
2019-01-04T00:03:27.449Z,102286.02
2019-01-04T00:05:57.069Z,102293.67
2019-01-04T00:08:26.087Z,102295.16
2019-01-04T00:10:55.119Z,102304.71
2019-01-04T00:13:24.323Z,102299.52
2019-01-04T00:15:53.674Z,102300.87
2019-01-04T00:18:22.982Z,102304.45
2019-01-04T00:20:52.379Z,102301.73
2019-01-04T00:23:21.688Z,102294.08
2019-01-04T00:25:50.771Z,102302.11
2019-01-04T00:28:19.872Z,102301.77
2019-01-04T00:30:48.963Z,102307.05
2019-01-04T00:33:18.183Z,102307.15
2019-01-04T00:35:47.413Z,102302.70
2019-01-04T00:38:16.555Z,102302.61
2019-01-04T00:40:45.746Z,102305.53
2019-01-04T00:43:14.920Z,102304.89
2019-01-04T00:45:44.290Z,102311.02
2019-01-04T00:48:13.550Z,102308.19
2019-01-04T00:50:42.639Z,102306.00
2019-01-04T00:53:12.097Z,102300.62
2019-01-04T00:56:08.518Z,102289.11
2019-01-04T00:59:11.075Z,102289.11
2019-01-04T01:02:25.964Z,102287.22
2019-01-04T01:05:47.328Z,102287.22
2019-01-04T01:09:11.613Z,102294.87
2019-01-04T01:12:32.542Z,102291.01
2019-01-04T01:15:53.683Z,102294.48
2019-01-04T01:18:57.958Z,102295.53
2019-01-04T01:22:04.999Z,102294.30
2019-01-04T01:25:17.089Z,102294.30
2019-01-04T01:28:29.381Z,102289.56
2019-01-04T01:31:55.481Z,102288.16
2019-01-04T01:35:02.598Z,102279.27
2019-01-04T01:38:10.486Z,102274.34
2019-01-04T01:41:15.461Z,102283.14
2019-01-04T01:44:26.117Z,102282.47
2019-01-04T01:47:22.030Z,102274.72
2019-01-04T01:50:53.514Z,102274.53
2019-01-04T01:53:22.488Z,102277.11
2019-01-04T01:55:51.711Z,102276.72
2019-01-04T01:58:20.841Z,102273.98
2019-01-04T02:00:50.217Z,102264.18
2019-01-04T02:03:19.553Z,102264.45
2019-01-04T02:05:48.995Z,102265.01
2019-01-04T02:08:18.062Z,102265.01
2019-01-04T02:10:47.135Z,102261.41
2019-01-04T02:13:16.211Z,102261.41
2019-01-04T02:15:45.513Z,102261.13
2019-01-04T02:18:14.605Z,102262.09
2019-01-04T02:20:43.877Z,102261.41
2019-01-04T02:23:13.143Z,102255.20
2019-01-04T02:25:42.548Z,102266.73
2019-01-04T02:28:11.654Z,102265.96
2019-01-04T02:30:40.866Z,102274.36
2019-01-04T02:33:10.134Z,102277.83
2019-01-04T02:35:39.494Z,102284.44
2019-01-04T02:38:08.566Z,102285.57
2019-01-04T02:40:37.761Z,102289.44
2019-01-04T02:43:06.834Z,102300.87
2019-01-04T02:45:36.221Z,102294.45
2019-01-04T02:48:05.290Z,102294.45
2019-01-04T02:50:34.521Z,102297.00
2019-01-04T02:53:03.823Z,102299.28
2019-01-04T02:55:33.058Z,102300.59
2019-01-04T02:58:02.321Z,102295.77
2019-01-04T03:00:31.545Z,102289.07
2019-01-04T03:03:00.646Z,102293.69
2019-01-04T03:05:31.686Z,102292.67
2019-01-04T03:08:01.001Z,102283.97
2019-01-04T03:10:30.298Z,102283.97
2019-01-04T03:12:59.638Z,102288.34
2019-01-04T03:15:28.847Z,102287.20
2019-01-04T03:17:57.932Z,102279.86
2019-01-04T03:20:27.154Z,102272.37
2019-01-04T03:22:56.261Z,102272.37
2019-01-04T03:25:25.587Z,102270.03
2019-01-04T03:27:54.859Z,102276.84
2019-01-04T03:30:24.348Z,102280.61
2019-01-04T03:32:53.414Z,102274.92
2019-01-04T03:35:22.499Z,102273.69
2019-01-04T03:37:51.805Z,102265.48
2019-01-04T03:40:21.035Z,102264.27
2019-01-04T03:42:50.349Z,102257.27
2019-01-04T03:45:19.391Z,102261.23
2019-01-04T03:47:50.775Z,102262.92
2019-01-04T03:50:20.136Z,102261.59
2019-01-04T03:52:49.217Z,102264.24
2019-01-04T03:55:18.281Z,102264.36
2019-01-04T03:57:47.387Z,102257.63
2019-01-04T04:00:16.563Z,102247.61
2019-01-04T04:02:45.974Z,102241.09
2019-01-04T04:05:15.018Z,102244.12
2019-01-04T04:07:44.393Z,102247.64
2019-01-04T04:10:13.604Z,102247.64
2019-01-04T04:12:42.855Z,102246.03
2019-01-04T04:15:12.061Z,102246.03
2019-01-04T04:17:41.190Z,102249.14
2019-01-04T04:20:10.262Z,102262.75
2019-01-04T04:22:39.666Z,102262.75
2019-01-04T04:25:08.836Z,102260.67
2019-01-04T04:27:38.161Z,102256.40
2019-01-04T04:30:07.666Z,102262.92
2019-01-04T04:32:36.718Z,102264.91
2019-01-04T04:35:06.128Z,102263.09
2019-01-04T04:37:35.241Z,102272.44
2019-01-04T04:40:04.335Z,102268.97
2019-01-04T04:42:33.420Z,102268.39
2019-01-04T04:45:02.651Z,102254.43
2019-01-04T04:47:31.810Z,102256.67
2019-01-04T04:50:01.096Z,102261.05
2019-01-04T04:52:30.312Z,102256.03
2019-01-04T04:54:59.801Z,102257.27
2019-01-04T04:57:28.885Z,102261.88
2019-01-04T04:59:57.999Z,102261.50
2019-01-04T05:02:27.415Z,102257.81
2019-01-04T05:04:56.502Z,102254.34
2019-01-04T05:07:25.754Z,102251.02
2019-01-04T05:09:55.283Z,102252.34
2019-01-04T05:12:24.389Z,102261.23
2019-01-04T05:14:53.466Z,102259.14
2019-01-04T05:17:22.582Z,102260.95
2019-01-04T05:19:51.710Z,102253.48
2019-01-04T05:22:20.976Z,102246.69
2019-01-04T05:24:50.214Z,102241.03
2019-01-04T05:27:19.450Z,102236.57
2019-01-04T05:29:48.611Z,102230.64
2019-01-04T05:32:17.896Z,102238.02
2019-01-04T05:34:47.021Z,102238.94
2019-01-04T05:37:16.379Z,102242.54
2019-01-04T05:39:45.410Z,102243.86
2019-01-04T05:42:14.758Z,102246.41
2019-01-04T05:44:44.309Z,102247.83
2019-01-04T05:47:13.403Z,102245.73
2019-01-04T05:49:42.486Z,102241.77
2019-01-04T05:52:11.780Z,102240.27
2019-01-04T05:54:40.978Z,102233.07
2019-01-04T05:57:10.269Z,102240.08
2019-01-04T05:59:39.739Z,102243.64
2019-01-04T06:02:08.831Z,102241.77
2019-01-04T06:04:38.226Z,102241.77
2019-01-04T06:07:09.339Z,102243.73
2019-01-04T06:09:38.747Z,102248.84
2019-01-04T06:12:07.871Z,102247.23
2019-01-04T06:14:36.969Z,102247.23
2019-01-04T06:17:06.086Z,102242.31
2019-01-04T06:19:35.151Z,102236.07
2019-01-04T06:22:04.278Z,102240.41
2019-01-04T06:24:33.498Z,102245.23
2019-01-04T06:27:02.568Z,102243.63
2019-01-04T06:29:31.922Z,102243.63
2019-01-04T06:32:01.147Z,102234.84
2019-01-04T06:34:30.418Z,102235.89
2019-01-04T06:36:59.503Z,102242.41
2019-01-04T06:39:28.785Z,102242.41
2019-01-04T06:41:58.143Z,102245.91
2019-01-04T06:44:27.247Z,102253.66
2019-01-04T06:47:12.218Z,102249.88
2019-01-04T06:49:43.228Z,102254.48
2019-01-04T06:52:12.584Z,102261.77
2019-01-04T06:55:37.182Z,102263.72
2019-01-04T06:58:06.710Z,102263.72
2019-01-04T07:00:35.837Z,102267.41
2019-01-04T07:03:04.949Z,102267.95
2019-01-04T07:05:34.295Z,102274.11
2019-01-04T07:08:03.362Z,102274.11
2019-01-04T07:10:32.632Z,102277.97
2019-01-04T07:13:01.773Z,102275.80
2019-01-04T07:15:31.096Z,102290.33
2019-01-04T07:18:00.437Z,102287.50
2019-01-04T07:20:29.549Z,102287.50
2019-01-04T07:22:58.891Z,102295.52
2019-01-04T07:25:28.030Z,102292.79
2019-01-04T07:27:57.252Z,102300.08
2019-01-04T07:30:26.415Z,102300.08
2019-01-04T07:32:55.850Z,102306.69
2019-01-04T07:35:24.916Z,102299.12
2019-01-04T07:37:54.239Z,102299.59
2019-01-04T07:40:23.321Z,102296.48
2019-01-04T07:42:52.527Z,102292.34
2019-01-04T07:45:21.774Z,102302.46
2019-01-04T07:47:50.909Z,102302.46
2019-01-04T07:50:20.179Z,102299.91
2019-01-04T07:52:49.506Z,102303.47
2019-01-04T07:55:19.077Z,102303.47
2019-01-04T07:57:48.408Z,102308.84
2019-01-04T08:00:18.971Z,102320.63
2019-01-04T08:02:52.595Z,102324.33
2019-01-04T08:05:23.285Z,102325.75
2019-01-04T08:07:55.654Z,102323.29
2019-01-04T08:10:25.061Z,102331.48
2019-01-04T08:12:54.189Z,102324.14
2019-01-04T08:15:23.517Z,102326.78
2019-01-04T08:17:52.648Z,102327.64
2019-01-04T08:20:21.818Z,102327.64
2019-01-04T08:22:50.886Z,102324.79
2019-01-04T08:25:20.088Z,102324.61
2019-01-04T08:27:49.336Z,102325.48
2019-01-04T08:30:22.395Z,102333.55
2019-01-04T08:32:51.476Z,102338.66
2019-01-04T08:35:20.759Z,102344.73
2019-01-04T08:37:50.202Z,102349.08
2019-01-04T08:40:19.306Z,102349.08
2019-01-04T08:42:48.530Z,102344.55
2019-01-04T08:45:17.659Z,102335.84
2019-01-04T08:47:46.878Z,102335.84
2019-01-04T08:50:17.510Z,102341.05
2019-01-04T08:52:46.748Z,102332.01
2019-01-04T08:55:23.202Z,102333.50
2019-01-04T08:57:52.583Z,102326.61
2019-01-04T09:00:21.671Z,102326.61
2019-01-04T09:02:52.981Z,102317.91
2019-01-04T09:05:22.258Z,102317.91
2019-01-04T09:07:51.525Z,102322.54
2019-01-04T09:10:20.660Z,102316.86
2019-01-04T09:12:49.779Z,102322.22
2019-01-04T09:15:18.919Z,102322.22
2019-01-04T09:17:48.642Z,102325.03
2019-01-04T09:20:17.715Z,102325.97
2019-01-04T09:22:46.898Z,102323.42
2019-01-04T09:25:15.978Z,102324.25
2019-01-04T09:27:45.115Z,102321.78
2019-01-04T09:30:15.628Z,102310.98
2019-01-04T09:32:44.723Z,102310.98
2019-01-04T09:35:13.806Z,102312.38
2019-01-04T09:37:43.019Z,102319.92
2019-01-04T09:40:13.093Z,102319.92
2019-01-04T09:42:45.559Z,102309.76
2019-01-04T09:45:14.694Z,102309.00
2019-01-04T09:47:43.792Z,102309.00
2019-01-04T09:50:13.190Z,102313.50
2019-01-04T09:52:42.293Z,102306.52
2019-01-04T09:55:11.419Z,102309.06
2019-01-04T09:57:40.821Z,102303.44
2019-01-04T10:00:12.109Z,102303.44
2019-01-04T10:02:41.254Z,102297.59
2019-01-04T10:05:12.139Z,102294.55
2019-01-04T10:07:41.452Z,102294.55
2019-01-04T10:10:12.141Z,102289.48
2019-01-04T10:12:41.418Z,102290.14
2019-01-04T10:15:15.995Z,102289.77
2019-01-04T10:17:45.213Z,102289.77
2019-01-04T10:20:14.454Z,102292.02
2019-01-04T10:22:43.543Z,102281.01
2019-01-04T10:25:13.005Z,102280.41
2019-01-04T10:27:42.303Z,102274.59
2019-01-04T10:30:26.263Z,102258.89
2019-01-04T10:32:55.353Z,102265.68
2019-01-04T10:35:24.673Z,102265.68
2019-01-04T10:37:53.863Z,102254.02
2019-01-04T10:40:23.048Z,102254.02
2019-01-04T10:42:52.130Z,102252.69
2019-01-04T10:45:21.321Z,102252.69
2019-01-04T10:47:50.526Z,102258.40
2019-01-04T10:50:19.639Z,102250.53
2019-01-04T10:52:48.931Z,102248.45
2019-01-04T10:55:18.141Z,102233.77
2019-01-04T10:57:47.257Z,102230.11
2019-01-04T11:00:16.973Z,102232.19
2019-01-04T11:02:46.774Z,102233.36
2019-01-04T11:05:16.252Z,102232.97
2019-01-04T11:07:45.647Z,102232.97
2019-01-04T11:10:15.249Z,102227.50
2019-01-04T11:12:44.876Z,102231.43
2019-01-04T11:15:14.267Z,102230.47
2019-01-04T11:17:43.557Z,102230.47
2019-01-04T11:20:49.462Z,102230.36
2019-01-04T11:23:55.889Z,102230.36
2019-01-04T11:26:41.421Z,102225.38
2019-01-04T11:29:33.211Z,102223.13
2019-01-04T11:32:35.349Z,102217.06
2019-01-04T11:35:37.981Z,102216.16
2019-01-04T11:38:32.555Z,102216.16
2019-01-04T11:41:47.473Z,102205.02
2019-01-04T11:44:40.156Z,102205.02
2019-01-04T11:47:26.297Z,102196.05
2019-01-04T11:50:33.612Z,102196.59
2019-01-04T11:53:11.392Z,102196.59
2019-01-04T11:55:40.933Z,102209.37
2019-01-04T11:58:10.176Z,102190.78
2019-01-04T12:00:39.292Z,102179.69
2019-01-04T12:03:08.626Z,102179.69
2019-01-04T12:05:38.199Z,102170.13
2019-01-04T12:08:07.505Z,102171.69
2019-01-04T12:10:37.727Z,102168.14
2019-01-04T12:13:07.005Z,102158.77
2019-01-04T12:15:36.397Z,102149.67
2019-01-04T12:18:05.696Z,102140.08
2019-01-04T12:20:34.803Z,102140.08
2019-01-04T12:23:04.569Z,102128.33
2019-01-04T12:25:34.068Z,102131.73
2019-01-04T12:28:03.371Z,102128.47
2019-01-04T12:30:32.564Z,102142.70
2019-01-04T12:33:01.783Z,102149.92
2019-01-04T12:35:30.964Z,102142.35
2019-01-04T12:38:00.093Z,102142.35
2019-01-04T12:40:29.343Z,102137.92
2019-01-04T12:42:58.814Z,102137.06
2019-01-04T12:45:28.151Z,102143.38
2019-01-04T12:47:57.302Z,102132.62
2019-01-04T12:50:26.656Z,102115.75
2019-01-04T12:52:55.750Z,102123.36
2019-01-04T12:55:24.977Z,102129.02
2019-01-04T12:57:54.070Z,102125.56
2019-01-04T13:00:23.303Z,102123.71
2019-01-04T13:02:52.512Z,102125.59
2019-01-04T13:05:22.538Z,102113.65
2019-01-04T13:07:53.043Z,102117.43
2019-01-04T13:10:22.175Z,102117.43
2019-01-04T13:12:51.457Z,102116.73
2019-01-04T13:15:20.360Z,102119.09
2019-01-04T13:17:49.663Z,102116.80
2019-01-04T13:20:18.940Z,102109.80
2019-01-04T13:22:48.109Z,102108.95
2019-01-04T13:25:17.364Z,102098.02
2019-01-04T13:27:46.612Z,102098.02
2019-01-04T13:30:15.832Z,102108.53
2019-01-04T13:32:45.155Z,102103.14
2019-01-04T13:35:14.275Z,102100.27
2019-01-04T13:37:43.602Z,102100.27
2019-01-04T13:40:13.395Z,102088.44
2019-01-04T13:42:42.870Z,102089.88
2019-01-04T13:45:12.200Z,102098.13
2019-01-04T13:47:41.400Z,102094.95
2019-01-04T13:50:10.627Z,102098.80
2019-01-04T13:52:39.743Z,102092.75
2019-01-04T13:55:08.931Z,102075.95
2019-01-04T13:57:38.166Z,102075.95
2019-01-04T14:00:08.952Z,102083.66
2019-01-04T14:02:38.601Z,102086.65
2019-01-04T14:05:08.078Z,102095.94
2019-01-04T14:07:37.335Z,102086.07
2019-01-04T14:10:09.934Z,102069.16
2019-01-04T14:12:39.338Z,102060.42
2019-01-04T14:15:10.401Z,102060.42
2019-01-04T14:17:40.033Z,102063.96
2019-01-04T14:20:09.416Z,102056.75
2019-01-04T14:22:38.553Z,102065.67
2019-01-04T14:25:08.726Z,102065.67
2019-01-04T14:27:39.289Z,102053.05
2019-01-04T14:30:10.797Z,102056.03
2019-01-04T14:32:40.273Z,102065.38
2019-01-04T14:35:10.032Z,102065.38
2019-01-04T14:37:39.547Z,102052.22
2019-01-04T14:40:11.044Z,102052.22
2019-01-04T14:42:40.462Z,102027.95
2019-01-04T14:45:10.157Z,102027.95
2019-01-04T14:47:39.318Z,102046.20
2019-01-04T14:50:11.385Z,102048.83
2019-01-04T14:52:41.979Z,102031.02
2019-01-04T14:55:11.121Z,102031.02
2019-01-04T14:57:40.410Z,102016.00
2019-01-04T15:00:12.217Z,102009.25
2019-01-04T15:02:41.496Z,101999.59
2019-01-04T15:05:10.732Z,101999.59
2019-01-04T15:07:40.109Z,102008.66
2019-01-04T15:10:10.412Z,102006.67
2019-01-04T15:12:39.503Z,102003.27
2019-01-04T15:15:08.738Z,102003.27
2019-01-04T15:17:37.886Z,101998.41
2019-01-04T15:20:08.357Z,101998.41
2019-01-04T15:22:37.471Z,101977.09
2019-01-04T15:25:07.245Z,101980.38
2019-01-04T15:27:38.426Z,101980.38
2019-01-04T15:30:10.018Z,101970.85
2019-01-04T15:32:39.102Z,101970.85
2019-01-04T15:35:08.449Z,101969.55
2019-01-04T15:37:37.585Z,101969.55
2019-01-04T15:40:08.310Z,101965.63
2019-01-04T15:42:37.830Z,101951.91
2019-01-04T15:45:08.240Z,101949.09
2019-01-04T15:47:37.457Z,101957.05
2019-01-04T15:50:08.475Z,101957.05
2019-01-04T15:52:37.637Z,101981.33
2019-01-04T15:55:07.075Z,101984.03
2019-01-04T15:57:36.284Z,101984.03
2019-01-04T16:00:07.030Z,102001.78
2019-01-04T16:02:36.379Z,102006.20
2019-01-04T16:05:06.465Z,102008.12
2019-01-04T16:07:35.832Z,102000.00
2019-01-04T16:10:07.231Z,102000.00
2019-01-04T16:12:36.474Z,101986.38
2019-01-04T16:15:06.396Z,101984.45
2019-01-04T16:17:35.690Z,102004.83
2019-01-04T16:20:06.107Z,102008.05
2019-01-04T16:22:35.220Z,102002.97
2019-01-04T16:25:04.436Z,101997.67
2019-01-04T16:27:33.728Z,101981.97
2019-01-04T16:30:02.857Z,101977.67
2019-01-04T16:32:31.997Z,101977.67
2019-01-04T16:35:01.121Z,101976.39
2019-01-04T16:37:30.254Z,101962.42
2019-01-04T16:39:59.523Z,101962.03
2019-01-04T16:42:28.699Z,101962.03
2019-01-04T16:44:57.939Z,101980.90
2019-01-04T16:47:27.317Z,101984.09
2019-01-04T16:49:56.553Z,102000.35
2019-01-04T16:52:25.672Z,102000.35
2019-01-04T16:54:54.800Z,101991.30
2019-01-04T16:57:23.918Z,102005.44
2019-01-04T16:59:53.487Z,102005.44
2019-01-04T17:02:22.994Z,101998.05
2019-01-04T17:04:53.202Z,101998.05
2019-01-04T17:07:22.436Z,102014.20
2019-01-04T17:09:51.719Z,102019.44
2019-01-04T17:12:20.862Z,102019.44
2019-01-04T17:14:49.977Z,102021.95
2019-01-04T17:17:19.133Z,102021.84
2019-01-04T17:19:48.954Z,102018.41
2019-01-04T17:22:18.492Z,102018.41
2019-01-04T17:24:47.612Z,102022.88
2019-01-04T17:27:16.741Z,102026.39
2019-01-04T17:29:46.156Z,102032.05
2019-01-04T17:32:15.285Z,102035.64
2019-01-04T17:34:44.565Z,102041.55
2019-01-04T17:37:13.686Z,102041.50
2019-01-04T17:39:42.813Z,102035.47
2019-01-04T17:42:12.041Z,102038.80
2019-01-04T17:44:41.266Z,102038.80
2019-01-04T17:47:10.508Z,102031.02
2019-01-04T17:49:40.030Z,102024.20
2019-01-04T17:52:09.888Z,102022.31
2019-01-04T17:54:39.281Z,102022.43
2019-01-04T17:57:08.621Z,102022.43
2019-01-04T17:59:37.824Z,102010.71
2019-01-04T18:02:07.139Z,102013.52
2019-01-04T18:04:36.210Z,101999.41
2019-01-04T18:07:05.467Z,101999.41
2019-01-04T18:09:34.777Z,102009.62
2019-01-04T18:12:03.971Z,102018.44
2019-01-04T18:14:33.158Z,102018.44
2019-01-04T18:17:02.276Z,102018.66
2019-01-04T18:19:31.477Z,102014.89
2019-01-04T18:22:00.803Z,102022.81
2019-01-04T18:24:30.823Z,102019.84
2019-01-04T18:27:00.010Z,102019.84
2019-01-04T18:29:29.259Z,102019.84
2019-01-04T18:31:58.328Z,102021.55
2019-01-04T18:34:27.740Z,102021.55
2019-01-04T18:36:56.804Z,102029.81
2019-01-04T18:39:26.221Z,102029.81
2019-01-04T18:41:55.313Z,102029.09
2019-01-04T18:44:24.654Z,102029.09
2019-01-04T18:46:53.909Z,102024.16
2019-01-04T18:49:23.251Z,102021.36
2019-01-04T18:51:53.163Z,102018.92
2019-01-04T18:54:22.327Z,102027.49
2019-01-04T18:56:51.767Z,102021.08
2019-01-04T18:59:21.018Z,102025.41
2019-01-04T19:01:50.259Z,102017.11
2019-01-04T19:04:19.449Z,102018.69
2019-01-04T19:06:48.544Z,102004.98
2019-01-04T19:09:17.821Z,102005.84
2019-01-04T19:11:47.466Z,101998.21
2019-01-04T19:14:16.715Z,101998.21
2019-01-04T19:16:45.948Z,101995.25
2019-01-04T19:19:15.075Z,101998.52
2019-01-04T19:21:44.198Z,101979.94
2019-01-04T19:24:13.530Z,101969.59
2019-01-04T19:26:43.517Z,101968.06
2019-01-04T19:29:12.825Z,101944.83
2019-01-04T19:31:42.305Z,101944.83
2019-01-04T19:34:11.628Z,101953.49
2019-01-04T19:36:41.004Z,101946.73
2019-01-04T19:39:10.765Z,101939.25
2019-01-04T19:41:40.071Z,101940.78
2019-01-04T19:44:09.470Z,101940.78
2019-01-04T19:46:39.045Z,101940.29
2019-01-04T19:49:08.385Z,101936.92
2019-01-04T19:51:37.667Z,101943.80
2019-01-04T19:54:06.868Z,101944.55
2019-01-04T19:56:36.139Z,101934.45
2019-01-04T19:59:05.240Z,101938.53
2019-01-04T20:01:34.405Z,101938.53
2019-01-04T20:04:03.785Z,101938.17
2019-01-04T20:07:47.950Z,101928.72
2019-01-04T20:11:37.679Z,101932.81
2019-01-04T20:15:16.935Z,101924.08
2019-01-04T20:18:08.326Z,101924.08
2019-01-04T20:20:56.404Z,101929.05
2019-01-04T20:23:43.059Z,101932.92
2019-01-04T20:26:32.085Z,101929.80
2019-01-04T20:29:23.529Z,101929.80
2019-01-04T20:32:19.891Z,101937.00
2019-01-04T20:35:26.100Z,101937.00
2019-01-04T20:38:13.988Z,101942.72
2019-01-04T20:41:11.209Z,101949.77
2019-01-04T20:44:05.383Z,101953.67
2019-01-04T20:46:59.900Z,101953.35
2019-01-04T20:50:01.126Z,101953.35
2019-01-04T20:52:53.239Z,101957.43
2019-01-04T20:55:51.062Z,101963.05
2019-01-04T20:58:39.390Z,101960.44
2019-01-04T21:01:32.700Z,101963.80
2019-01-04T21:04:27.207Z,101959.94
2019-01-04T21:07:21.561Z,101961.69
2019-01-04T21:10:15.593Z,101961.69
2019-01-04T21:13:02.529Z,101968.78
2019-01-04T21:15:49.520Z,101971.36
2019-01-04T21:18:43.493Z,101971.36
2019-01-04T21:21:46.829Z,101972.94
2019-01-04T21:24:37.932Z,101970.57
2019-01-04T21:27:26.307Z,101969.21
2019-01-04T21:30:23.946Z,101969.21
2019-01-04T21:33:24.441Z,101965.38
2019-01-04T21:36:12.487Z,101975.12
2019-01-04T21:38:59.441Z,101965.23
2019-01-04T21:41:52.830Z,101958.51
2019-01-04T21:44:39.631Z,101958.51
2019-01-04T21:47:26.875Z,101974.44
2019-01-04T21:50:20.967Z,101976.09
2019-01-04T21:53:07.912Z,101983.85
2019-01-04T21:55:54.696Z,101983.92
2019-01-04T21:58:49.072Z,101981.31
2019-01-04T22:01:37.621Z,101977.19
2019-01-04T22:04:35.268Z,101973.55
2019-01-04T22:07:21.911Z,101973.58
2019-01-04T22:10:08.726Z,101968.81
2019-01-04T22:13:03.454Z,101968.81
2019-01-04T22:16:03.982Z,101963.38
2019-01-04T22:18:50.813Z,101958.51
2019-01-04T22:21:51.003Z,101949.73
2019-01-04T22:24:38.100Z,101949.73
2019-01-04T22:27:28.562Z,101951.17
2019-01-04T22:30:25.884Z,101947.86
2019-01-04T22:33:17.272Z,101943.50
2019-01-04T22:36:05.422Z,101946.41
2019-01-04T22:38:43.518Z,101946.09
2019-01-04T22:41:34.998Z,101950.48
2019-01-04T22:44:38.549Z,101941.42
2019-01-04T22:47:26.758Z,101941.42
2019-01-04T22:50:20.947Z,101938.39
2019-01-04T22:53:06.493Z,101940.53
2019-01-04T22:56:07.236Z,101943.44
2019-01-04T22:59:01.532Z,101935.13
2019-01-04T23:02:08.026Z,101935.13
2019-01-04T23:04:59.132Z,101923.64
2019-01-04T23:07:39.010Z,101923.20
2019-01-04T23:10:25.731Z,101923.20
2019-01-04T23:13:26.338Z,101922.77
2019-01-04T23:16:20.688Z,101908.17
2019-01-04T23:19:08.751Z,101921.89
2019-01-04T23:22:24.280Z,101916.23
2019-01-04T23:25:11.312Z,101916.23
2019-01-04T23:28:02.240Z,101907.06
2019-01-04T23:30:50.322Z,101912.61
2019-01-04T23:33:41.842Z,101912.61
2019-01-04T23:36:33.062Z,101907.45
2019-01-04T23:39:19.824Z,101905.69
2019-01-04T23:42:13.891Z,101899.45
2019-01-04T23:45:01.147Z,101899.45
2019-01-04T23:47:48.207Z,101904.37
2019-01-04T23:50:42.958Z,101904.76
2019-01-04T23:53:31.327Z,101905.58
2019-01-04T23:56:34.765Z,101905.55
2019-01-04T23:59:32.182Z,101903.27
